Cape Cod — WBK3243 — position and weather

sailwx.info

Track history (hours):
 
Tides and Currents Weather Stations Pressure Air Temp Water Temp Dewpoint Dewpoint Depression Visibility Wind Speed Wind Dir Waves Ship Positions

Cape Cod

Owner: MORAN TOWING CORPORATION, New Canaan, CT. More information available from US FCC via Universal Licensing System and Coast Guard Vessel Documentation Center.

Last reported at 2017-Jan-23 14:33 UTC. Time now 2017-Jan-23 14:43 UTC.
Position N 39°49' W 075°24'.

Length 33 m; draft 4.8 m.

Type: Tug. MMSI: 366939770.

Date/timePositionNaut miles runAvg speedWind from/ knotsBaromVisibWave heightAir tempDewpointWater temp
2017-Jan-23 14:33N 39°49' W 075°24'3 3.3
2017-Jan-23 13:33N 39°51' W 075°21'1 0.6
2017-Jan-23 12:33N 39°51' W 075°20'1 1.2
2017-Jan-23 11:33N 39°50' W 075°22'1 1.3
2017-Jan-23 10:33N 39°51' W 075°20'0 0.0
2017-Jan-23 09:33N 39°51' W 075°20'0 0.0
2017-Jan-23 08:33N 39°51' W 075°20'0 0.0
2017-Jan-23 07:33N 39°51' W 075°20'5 4.8
2017-Jan-23 06:34N 39°52' W 075°14'6 5.7
2017-Jan-23 05:33N 39°55' W 075°08'2 1.9
2017-Jan-23 04:33N 39°53' W 075°09'2 1.6
2017-Jan-23 03:33N 39°53' W 075°11'0 0.0
2017-Jan-23 02:33N 39°53' W 075°11'0 0.0
2017-Jan-23 01:33N 39°53' W 075°11'0 0.0
2017-Jan-23 00:33N 39°53' W 075°11'0 0.0
2017-Jan-22 23:33N 39°53' W 075°11'1 1.2
2017-Jan-22 22:33N 39°53' W 075°09'1 1.3
2017-Jan-22 21:33N 39°53' W 075°11'4 3.6
2017-Jan-22 20:33N 39°51' W 075°15'6 6.4
2017-Jan-22 19:33N 39°49' W 075°23'1 1.2
2017-Jan-22 18:33N 39°49' W 075°24'2 1.9
2017-Jan-22 17:33N 39°48' W 075°26'2 1.9
2017-Jan-22 16:33N 39°49' W 075°24'0 0.0
2017-Jan-22 15:33N 39°49' W 075°24'0 0.0
2017-Jan-22 14:33N 39°49' W 075°24'7 6.6
2017-Jan-22 13:33N 39°51' W 075°16'8 8.2
2017-Jan-22 12:33N 39°56' W 075°08'3 3.1
2017-Jan-22 11:33N 39°59' W 075°06'0 0.0
2017-Jan-22 10:33N 39°59' W 075°06'0 0.0
2017-Jan-22 09:33N 39°59' W 075°06'0 0.0
2017-Jan-22 08:33N 39°59' W 075°06'4 4.4
2017-Jan-22 07:33N 39°55' W 075°08'3 2.5
2017-Jan-22 06:33N 39°53' W 075°11'0 0.0
2017-Jan-22 05:33N 39°53' W 075°11'0 0.0
2017-Jan-22 04:33N 39°53' W 075°11'0 0.0
2017-Jan-22 03:33N 39°53' W 075°11'0 0.0
2017-Jan-22 02:33N 39°53' W 075°11'0 0.0
2017-Jan-22 01:33N 39°53' W 075°11'0 0.0
2017-Jan-22 00:33N 39°53' W 075°11'0 0.0
2017-Jan-21 23:33N 39°53' W 075°11'0 0.0
2017-Jan-21 22:33N 39°53' W 075°11'0 0.0
2017-Jan-21 21:33N 39°53' W 075°11'0 0.0
2017-Jan-21 20:33N 39°53' W 075°11'0 0.0
2017-Jan-21 19:33N 39°53' W 075°11'2 2.2
2017-Jan-21 18:33N 39°54' W 075°08'4 3.8
2017-Jan-21 17:33N 39°58' W 075°08'5 5.4
2017-Jan-21 16:33N 39°53' W 075°10'7 6.9
2017-Jan-21 15:33N 39°51' W 075°19'7 6.9
2017-Jan-21 14:33N 39°47' W 075°27'7 7.5
2017-Jan-21 13:33N 39°41' W 075°31'7 6.9
2017-Jan-21 12:33N 39°34' W 075°33'8 8.0
2017-Jan-21 11:33N 39°26' W 075°32'9 9.0
2017-Jan-21 10:33N 39°19' W 075°24'12 2.9
2017-Jan-21 06:33N 39°10' W 075°16'1312.9
2017-Jan-21 05:33N 39°20' W 075°26'1313.5
2017-Jan-21 04:33N 39°33' W 075°33'1413.6
2017-Jan-21 03:34N 39°46' W 075°29'1313.3
2017-Jan-21 02:33N 39°52' W 075°13'2 2.3
2017-Jan-21 01:33N 39°53' W 075°11'0 0.0
2017-Jan-21 00:33N 39°53' W 075°11'0 0.0
2017-Jan-20 23:33N 39°53' W 075°11'0 0.0
2017-Jan-20 22:33N 39°53' W 075°11'0 0.0
2017-Jan-20 21:33N 39°53' W 075°11'0 0.0
2017-Jan-20 20:33N 39°53' W 075°11'0 0.0
2017-Jan-20 19:33N 39°53' W 075°11'2 2.5
2017-Jan-20 18:33N 39°54' W 075°08'2 2.5
2017-Jan-20 17:33N 39°53' W 075°10'0 0.2
2017-Jan-20 16:33N 39°53' W 075°11'0 0.0
2017-Jan-20 15:33N 39°53' W 075°11'0 0.0
2017-Jan-20 14:33N 39°53' W 075°11'2 1.6
2017-Jan-20 13:33N 39°52' W 075°12'1 0.6
2017-Jan-20 12:33N 39°53' W 075°12'1 1.0
2017-Jan-20 11:33N 39°53' W 075°11'0 0.0
2017-Jan-20 10:33N 39°53' W 075°11'0 0.0
2017-Jan-20 09:33N 39°53' W 075°11'0 0.0
2017-Jan-20 08:33N 39°53' W 075°11'0 0.0
2017-Jan-20 07:33N 39°53' W 075°11'0 0.0
2017-Jan-20 06:33N 39°53' W 075°11'0 0.0
2017-Jan-20 05:33N 39°53' W 075°11'0 0.0
2017-Jan-20 04:33N 39°53' W 075°11'0 0.0
2017-Jan-20 03:33N 39°53' W 075°11'0 0.0
2017-Jan-20 02:33N 39°53' W 075°11'0 0.0
2017-Jan-20 01:33N 39°53' W 075°11'2 1.5
2017-Jan-20 00:33N 39°53' W 075°09'1 1.5
2017-Jan-19 23:33N 39°53' W 075°11'0 0.0
2017-Jan-19 22:33N 39°53' W 075°11'0 0.0
2017-Jan-19 21:33N 39°53' W 075°11'0 0.0
2017-Jan-19 20:33N 39°53' W 075°11'0 0.0
2017-Jan-19 19:33N 39°53' W 075°11'0 0.0
2017-Jan-19 18:33N 39°53' W 075°11'0 0.0
2017-Jan-19 17:33N 39°53' W 075°11'2 2.1
2017-Jan-19 16:31N 39°52' W 075°13'1 1.0
2017-Jan-19 15:33N 39°51' W 075°14'3 3.2
2017-Jan-19 14:33N 39°53' W 075°11'0 0.0
2017-Jan-19 13:33N 39°53' W 075°11'0 0.0
2017-Jan-19 12:33N 39°53' W 075°11'0 0.0
2017-Jan-19 11:33N 39°53' W 075°11'0 0.0
2017-Jan-19 10:33N 39°53' W 075°11'0 0.0
2017-Jan-19 09:33N 39°53' W 075°11'0 0.0
2017-Jan-19 08:33N 39°53' W 075°11'0 0.0
2017-Jan-19 07:33N 39°53' W 075°11'2 2.3
2017-Jan-19 06:33N 39°54' W 075°08'1 0.9
2017-Jan-19 05:33N 39°55' W 075°08'3 2.7
2017-Jan-19 04:33N 39°53' W 075°11'0 0.0
2017-Jan-19 03:33N 39°53' W 075°11'0 0.0
2017-Jan-19 02:33N 39°53' W 075°11'0 0.0
2017-Jan-19 01:33N 39°53' W 075°11'0 0.0
2017-Jan-19 00:33N 39°53' W 075°11'0 0.0
2017-Jan-18 23:33N 39°53' W 075°11'0 0.0
2017-Jan-18 22:33N 39°53' W 075°11'0 0.0
2017-Jan-18 21:33N 39°53' W 075°11'0 0.0
2017-Jan-18 20:33N 39°53' W 075°11'0 0.0
2017-Jan-18 19:33N 39°53' W 075°11'0 0.0
2017-Jan-18 18:33N 39°53' W 075°11'0 0.0
2017-Jan-18 17:33N 39°53' W 075°11'0 0.0
2017-Jan-18 16:33N 39°53' W 075°11'0 0.0
2017-Jan-18 15:33N 39°53' W 075°11'0 0.0
2017-Jan-18 14:33N 39°53' W 075°11'0 0.0
2017-Jan-18 13:33N 39°53' W 075°11'0 0.0
2017-Jan-18 12:33N 39°53' W 075°11'0 0.0
2017-Jan-18 11:33N 39°53' W 075°11'0 0.0
2017-Jan-18 10:33N 39°53' W 075°11'0 0.0
2017-Jan-18 09:33N 39°53' W 075°11'0 0.0
2017-Jan-18 08:33N 39°53' W 075°11'0 0.0
2017-Jan-18 07:33N 39°53' W 075°11'0 0.0
2017-Jan-18 06:33N 39°53' W 075°11'0 0.0
2017-Jan-18 05:33N 39°53' W 075°11'0 0.0
2017-Jan-18 04:33N 39°53' W 075°11'0 0.0
2017-Jan-18 03:33N 39°53' W 075°11'0 0.0
2017-Jan-18 02:33N 39°53' W 075°11'0 0.0
2017-Jan-18 01:33N 39°53' W 075°11'0 0.0
2017-Jan-18 00:33N 39°53' W 075°11'0 0.0
2017-Jan-17 23:33N 39°53' W 075°11'0 0.0
2017-Jan-17 22:33N 39°53' W 075°11'0 0.0
2017-Jan-17 21:33N 39°53' W 075°11'0 0.0
2017-Jan-17 20:34N 39°53' W 075°11'2 2.4
2017-Jan-17 19:33N 39°54' W 075°08'2 2.4
2017-Jan-17 18:33N 39°53' W 075°11'0 0.0
2017-Jan-17 17:33N 39°53' W 075°11'0 0.0
2017-Jan-17 16:33N 39°53' W 075°11'0 0.0
2017-Jan-17 15:33N 39°53' W 075°11'0 0.1
2017-Jan-17 14:33N 39°53' W 075°11'0 0.1
2017-Jan-17 13:33N 39°53' W 075°11'0 0.0
2017-Jan-17 12:33N 39°53' W 075°11'0 0.3
2017-Jan-17 11:33N 39°53' W 075°10'7 6.6
2017-Jan-17 10:34N 39°59' W 075°06'2 2.1
2017-Jan-17 09:33N 39°57' W 075°08'5 4.6
2017-Jan-17 08:34N 39°53' W 075°11'0 0.0
2017-Jan-17 07:33N 39°53' W 075°11'0 0.0
2017-Jan-17 06:34N 39°53' W 075°11'0 0.0
2017-Jan-17 05:34N 39°53' W 075°11'0 0.0
2017-Jan-17 04:33N 39°53' W 075°11'0 0.0
2017-Jan-17 03:33N 39°53' W 075°11'0 0.0
2017-Jan-17 02:33N 39°53' W 075°11'0 0.0
2017-Jan-17 01:33N 39°53' W 075°11'0 0.0
2017-Jan-17 00:34N 39°53' W 075°11'0 0.0
2017-Jan-16 23:33N 39°53' W 075°11'1 1.5
2017-Jan-16 22:33N 39°53' W 075°09'1 0.5
2017-Jan-16 21:34N 39°53' W 075°08'2 1.9
2017-Jan-16 20:34N 39°53' W 075°11'0 0.0
2017-Jan-16 19:33N 39°53' W 075°11'8 7.8
2017-Jan-16 18:33N 39°51' W 075°20'1111.2
2017-Jan-16 17:33N 39°43' W 075°30'9 8.6
2017-Jan-16 16:33N 39°35' W 075°36'2 1.8
2017-Jan-16 15:33N 39°34' W 075°34'4 4.4
2017-Jan-16 14:33N 39°39' W 075°34'1010.5
2017-Jan-16 13:33N 39°48' W 075°27'1110.6
2017-Jan-16 12:33N 39°52' W 075°14'3 2.9
2017-Jan-16 11:33N 39°53' W 075°11'0 0.0
2017-Jan-16 10:33N 39°53' W 075°11'0 0.0
2017-Jan-16 09:33N 39°53' W 075°11'0 0.0
2017-Jan-16 08:33N 39°53' W 075°11'0 0.0
2017-Jan-16 07:33N 39°53' W 075°11'0 0.0
2017-Jan-16 06:33N 39°53' W 075°11'0 0.0
2017-Jan-16 05:33N 39°53' W 075°11'0 0.0
2017-Jan-16 04:33N 39°53' W 075°11'0 0.0
2017-Jan-16 03:33N 39°53' W 075°11'0 0.0
2017-Jan-16 02:33N 39°53' W 075°11'2 2.2
2017-Jan-16 01:33N 39°52' W 075°13'0 0.0
2017-Jan-16 00:33N 39°52' W 075°13'2 2.3
2017-Jan-15 23:33N 39°53' W 075°11'0 0.0
2017-Jan-15 22:33N 39°53' W 075°11'0 0.0
2017-Jan-15 21:33N 39°53' W 075°11'0 0.0
2017-Jan-15 20:33N 39°53' W 075°11'0 0.0
2017-Jan-15 19:33N 39°53' W 075°11'0 0.0
2017-Jan-15 18:33N 39°53' W 075°11'0 0.0
2017-Jan-15 17:33N 39°53' W 075°11'0 0.0
2017-Jan-15 16:33N 39°53' W 075°11'0 0.0
2017-Jan-15 15:33N 39°53' W 075°11'0 0.0
2017-Jan-15 14:33N 39°53' W 075°11'0 0.0
2017-Jan-15 13:33N 39°53' W 075°11'0 0.0
2017-Jan-15 12:33N 39°53' W 075°11'0 0.0
2017-Jan-15 11:32N 39°53' W 075°11'0 0.0
2017-Jan-15 10:33N 39°53' W 075°11'0 0.0
2017-Jan-15 09:33N 39°53' W 075°11'0 0.0
2017-Jan-15 08:33N 39°53' W 075°11'0 0.0
2017-Jan-15 07:33N 39°53' W 075°11'0 0.0
2017-Jan-15 06:33N 39°53' W 075°11'0 0.0
2017-Jan-15 05:33N 39°53' W 075°11'0 0.0
2017-Jan-15 04:33N 39°53' W 075°11'0 0.0
2017-Jan-15 03:33N 39°53' W 075°11'0 0.0
2017-Jan-15 02:33N 39°53' W 075°11'0 0.0
2017-Jan-15 01:33N 39°53' W 075°11'2 2.3
2017-Jan-15 00:33N 39°52' W 075°13'2 2.3
2017-Jan-14 23:33N 39°53' W 075°11'0 0.0
2017-Jan-14 22:33N 39°53' W 075°11'0 0.0
2017-Jan-14 21:33N 39°53' W 075°11'4 3.9
2017-Jan-14 20:33N 39°51' W 075°15'1110.9
2017-Jan-14 19:33N 39°47' W 075°28'1312.6
2017-Jan-14 18:33N 39°35' W 075°33'2 1.8
2017-Jan-14 17:33N 39°35' W 075°36'1 1.5
2017-Jan-14 16:33N 39°35' W 075°34'8 7.8
2017-Jan-14 15:33N 39°43' W 075°31'10 9.9
2017-Jan-14 14:33N 39°33' W 075°32'1312.8
2017-Jan-14 13:33N 39°21' W 075°26'13 6.1
2017-Jan-14 11:21N 39°10' W 075°16'911.0
2017-Jan-14 10:33N 39°18' W 075°22'1211.9
2017-Jan-14 09:33N 39°27' W 075°33'1111.0
2017-Jan-14 08:33N 39°37' W 075°35'1010.4
2017-Jan-14 07:33N 39°47' W 075°28'9 8.8
2017-Jan-14 06:32N 39°51' W 075°18'8 8.1
2017-Jan-14 05:33N 39°54' W 075°08'5 4.8
2017-Jan-14 04:33N 39°58' W 075°06'0 0.2
2017-Jan-14 03:33N 39°58' W 075°07'6 1.5
2017-Jan-13 23:33N 39°53' W 075°11'0 0.0
2017-Jan-13 22:33N 39°53' W 075°11'0 0.0
2017-Jan-13 21:33N 39°53' W 075°11'0 0.0
2017-Jan-13 20:33N 39°53' W 075°11'0 0.0
2017-Jan-13 19:33N 39°53' W 075°11'0 0.0
2017-Jan-13 18:33N 39°53' W 075°11'0 0.0
2017-Jan-13 17:33N 39°53' W 075°11'0 0.0
2017-Jan-13 16:33N 39°53' W 075°11'0 0.0
2017-Jan-13 15:33N 39°53' W 075°11'0 0.0
2017-Jan-13 14:33N 39°53' W 075°11'  
Track history (hours):
 
Tides and Currents Weather Stations Pressure Air Temp Water Temp Dewpoint Dewpoint Depression Visibility Wind Speed Wind Dir Waves Ship Positions

Cape Cod

Owner: MORAN TOWING CORPORATION, New Canaan, CT. More information available from US FCC via Universal Licensing System and Coast Guard Vessel Documentation Center.

Last reported at 2017-Jan-23 14:33 UTC. Time now 2017-Jan-23 14:43 UTC.
Position N 39°49' W 075°24'.

Length 33 m; draft 4.8 m.

Type: Tug. MMSI: 366939770.

Date/timePositionNaut miles runAvg speedWind from/ knotsBaromVisibWave heightAir tempDewpointWater temp
2017-Jan-23 14:33N 39°49' W 075°24'3 3.3
2017-Jan-23 13:33N 39°51' W 075°21'1 0.6
2017-Jan-23 12:33N 39°51' W 075°20'1 1.2
2017-Jan-23 11:33N 39°50' W 075°22'1 1.3
2017-Jan-23 10:33N 39°51' W 075°20'0 0.0
2017-Jan-23 09:33N 39°51' W 075°20'0 0.0
2017-Jan-23 08:33N 39°51' W 075°20'0 0.0
2017-Jan-23 07:33N 39°51' W 075°20'5 4.8
2017-Jan-23 06:34N 39°52' W 075°14'6 5.7
2017-Jan-23 05:33N 39°55' W 075°08'2 1.9
2017-Jan-23 04:33N 39°53' W 075°09'2 1.6
2017-Jan-23 03:33N 39°53' W 075°11'0 0.0
2017-Jan-23 02:33N 39°53' W 075°11'0 0.0
2017-Jan-23 01:33N 39°53' W 075°11'0 0.0
2017-Jan-23 00:33N 39°53' W 075°11'0 0.0
2017-Jan-22 23:33N 39°53' W 075°11'1 1.2
2017-Jan-22 22:33N 39°53' W 075°09'1 1.3
2017-Jan-22 21:33N 39°53' W 075°11'4 3.6
2017-Jan-22 20:33N 39°51' W 075°15'6 6.4
2017-Jan-22 19:33N 39°49' W 075°23'1 1.2
2017-Jan-22 18:33N 39°49' W 075°24'2 1.9
2017-Jan-22 17:33N 39°48' W 075°26'2 1.9
2017-Jan-22 16:33N 39°49' W 075°24'0 0.0
2017-Jan-22 15:33N 39°49' W 075°24'0 0.0
2017-Jan-22 14:33N 39°49' W 075°24'7 6.6
2017-Jan-22 13:33N 39°51' W 075°16'8 8.2
2017-Jan-22 12:33N 39°56' W 075°08'3 3.1
2017-Jan-22 11:33N 39°59' W 075°06'0 0.0
2017-Jan-22 10:33N 39°59' W 075°06'0 0.0
2017-Jan-22 09:33N 39°59' W 075°06'0 0.0
2017-Jan-22 08:33N 39°59' W 075°06'4 4.4
2017-Jan-22 07:33N 39°55' W 075°08'3 2.5
2017-Jan-22 06:33N 39°53' W 075°11'0 0.0
2017-Jan-22 05:33N 39°53' W 075°11'0 0.0
2017-Jan-22 04:33N 39°53' W 075°11'0 0.0
2017-Jan-22 03:33N 39°53' W 075°11'0 0.0
2017-Jan-22 02:33N 39°53' W 075°11'0 0.0
2017-Jan-22 01:33N 39°53' W 075°11'0 0.0
2017-Jan-22 00:33N 39°53' W 075°11'0 0.0
2017-Jan-21 23:33N 39°53' W 075°11'0 0.0
2017-Jan-21 22:33N 39°53' W 075°11'0 0.0
2017-Jan-21 21:33N 39°53' W 075°11'0 0.0
2017-Jan-21 20:33N 39°53' W 075°11'0 0.0
2017-Jan-21 19:33N 39°53' W 075°11'2 2.2
2017-Jan-21 18:33N 39°54' W 075°08'4 3.8
2017-Jan-21 17:33N 39°58' W 075°08'5 5.4
2017-Jan-21 16:33N 39°53' W 075°10'7 6.9
2017-Jan-21 15:33N 39°51' W 075°19'7 6.9
2017-Jan-21 14:33N 39°47' W 075°27'7 7.5
2017-Jan-21 13:33N 39°41' W 075°31'7 6.9
2017-Jan-21 12:33N 39°34' W 075°33'8 8.0
2017-Jan-21 11:33N 39°26' W 075°32'9 9.0
2017-Jan-21 10:33N 39°19' W 075°24'12 2.9
2017-Jan-21 06:33N 39°10' W 075°16'1312.9
2017-Jan-21 05:33N 39°20' W 075°26'1313.5
2017-Jan-21 04:33N 39°33' W 075°33'1413.6
2017-Jan-21 03:34N 39°46' W 075°29'1313.3
2017-Jan-21 02:33N 39°52' W 075°13'2 2.3
2017-Jan-21 01:33N 39°53' W 075°11'0 0.0
2017-Jan-21 00:33N 39°53' W 075°11'0 0.0
2017-Jan-20 23:33N 39°53' W 075°11'0 0.0
2017-Jan-20 22:33N 39°53' W 075°11'0 0.0
2017-Jan-20 21:33N 39°53' W 075°11'0 0.0
2017-Jan-20 20:33N 39°53' W 075°11'0 0.0
2017-Jan-20 19:33N 39°53' W 075°11'2 2.5
2017-Jan-20 18:33N 39°54' W 075°08'2 2.5
2017-Jan-20 17:33N 39°53' W 075°10'0 0.2
2017-Jan-20 16:33N 39°53' W 075°11'0 0.0
2017-Jan-20 15:33N 39°53' W 075°11'0 0.0
2017-Jan-20 14:33N 39°53' W 075°11'2 1.6
2017-Jan-20 13:33N 39°52' W 075°12'1 0.6
2017-Jan-20 12:33N 39°53' W 075°12'1 1.0
2017-Jan-20 11:33N 39°53' W 075°11'0 0.0
2017-Jan-20 10:33N 39°53' W 075°11'0 0.0
2017-Jan-20 09:33N 39°53' W 075°11'0 0.0
2017-Jan-20 08:33N 39°53' W 075°11'0 0.0
2017-Jan-20 07:33N 39°53' W 075°11'0 0.0
2017-Jan-20 06:33N 39°53' W 075°11'0 0.0
2017-Jan-20 05:33N 39°53' W 075°11'0 0.0
2017-Jan-20 04:33N 39°53' W 075°11'0 0.0
2017-Jan-20 03:33N 39°53' W 075°11'0 0.0
2017-Jan-20 02:33N 39°53' W 075°11'0 0.0
2017-Jan-20 01:33N 39°53' W 075°11'2 1.5
2017-Jan-20 00:33N 39°53' W 075°09'1 1.5
2017-Jan-19 23:33N 39°53' W 075°11'0 0.0
2017-Jan-19 22:33N 39°53' W 075°11'0 0.0
2017-Jan-19 21:33N 39°53' W 075°11'0 0.0
2017-Jan-19 20:33N 39°53' W 075°11'0 0.0
2017-Jan-19 19:33N 39°53' W 075°11'0 0.0
2017-Jan-19 18:33N 39°53' W 075°11'0 0.0
2017-Jan-19 17:33N 39°53' W 075°11'2 2.1
2017-Jan-19 16:31N 39°52' W 075°13'1 1.0
2017-Jan-19 15:33N 39°51' W 075°14'3 3.2
2017-Jan-19 14:33N 39°53' W 075°11'0 0.0
2017-Jan-19 13:33N 39°53' W 075°11'0 0.0
2017-Jan-19 12:33N 39°53' W 075°11'0 0.0
2017-Jan-19 11:33N 39°53' W 075°11'0 0.0
2017-Jan-19 10:33N 39°53' W 075°11'0 0.0
2017-Jan-19 09:33N 39°53' W 075°11'0 0.0
2017-Jan-19 08:33N 39°53' W 075°11'0 0.0
2017-Jan-19 07:33N 39°53' W 075°11'2 2.3
2017-Jan-19 06:33N 39°54' W 075°08'1 0.9
2017-Jan-19 05:33N 39°55' W 075°08'3 2.7
2017-Jan-19 04:33N 39°53' W 075°11'0 0.0
2017-Jan-19 03:33N 39°53' W 075°11'0 0.0
2017-Jan-19 02:33N 39°53' W 075°11'0 0.0
2017-Jan-19 01:33N 39°53' W 075°11'0 0.0
2017-Jan-19 00:33N 39°53' W 075°11'0 0.0
2017-Jan-18 23:33N 39°53' W 075°11'0 0.0
2017-Jan-18 22:33N 39°53' W 075°11'0 0.0
2017-Jan-18 21:33N 39°53' W 075°11'0 0.0
2017-Jan-18 20:33N 39°53' W 075°11'0 0.0
2017-Jan-18 19:33N 39°53' W 075°11'0 0.0
2017-Jan-18 18:33N 39°53' W 075°11'0 0.0
2017-Jan-18 17:33N 39°53' W 075°11'0 0.0
2017-Jan-18 16:33N 39°53' W 075°11'0 0.0
2017-Jan-18 15:33N 39°53' W 075°11'0 0.0
2017-Jan-18 14:33N 39°53' W 075°11'0 0.0
2017-Jan-18 13:33N 39°53' W 075°11'0 0.0
2017-Jan-18 12:33N 39°53' W 075°11'0 0.0
2017-Jan-18 11:33N 39°53' W 075°11'0 0.0
2017-Jan-18 10:33N 39°53' W 075°11'0 0.0
2017-Jan-18 09:33N 39°53' W 075°11'0 0.0
2017-Jan-18 08:33N 39°53' W 075°11'0 0.0
2017-Jan-18 07:33N 39°53' W 075°11'0 0.0
2017-Jan-18 06:33N 39°53' W 075°11'0 0.0
2017-Jan-18 05:33N 39°53' W 075°11'0 0.0
2017-Jan-18 04:33N 39°53' W 075°11'0 0.0
2017-Jan-18 03:33N 39°53' W 075°11'0 0.0
2017-Jan-18 02:33N 39°53' W 075°11'0 0.0
2017-Jan-18 01:33N 39°53' W 075°11'0 0.0
2017-Jan-18 00:33N 39°53' W 075°11'0 0.0
2017-Jan-17 23:33N 39°53' W 075°11'0 0.0
2017-Jan-17 22:33N 39°53' W 075°11'0 0.0
2017-Jan-17 21:33N 39°53' W 075°11'0 0.0
2017-Jan-17 20:34N 39°53' W 075°11'2 2.4
2017-Jan-17 19:33N 39°54' W 075°08'2 2.4
2017-Jan-17 18:33N 39°53' W 075°11'0 0.0
2017-Jan-17 17:33N 39°53' W 075°11'0 0.0
2017-Jan-17 16:33N 39°53' W 075°11'0 0.0
2017-Jan-17 15:33N 39°53' W 075°11'0 0.1
2017-Jan-17 14:33N 39°53' W 075°11'0 0.1
2017-Jan-17 13:33N 39°53' W 075°11'0 0.0
2017-Jan-17 12:33N 39°53' W 075°11'0 0.3
2017-Jan-17 11:33N 39°53' W 075°10'7 6.6
2017-Jan-17 10:34N 39°59' W 075°06'2 2.1
2017-Jan-17 09:33N 39°57' W 075°08'5 4.6
2017-Jan-17 08:34N 39°53' W 075°11'0 0.0
2017-Jan-17 07:33N 39°53' W 075°11'0 0.0
2017-Jan-17 06:34N 39°53' W 075°11'0 0.0
2017-Jan-17 05:34N 39°53' W 075°11'0 0.0
2017-Jan-17 04:33N 39°53' W 075°11'0 0.0
2017-Jan-17 03:33N 39°53' W 075°11'0 0.0
2017-Jan-17 02:33N 39°53' W 075°11'0 0.0
2017-Jan-17 01:33N 39°53' W 075°11'0 0.0
2017-Jan-17 00:34N 39°53' W 075°11'0 0.0
2017-Jan-16 23:33N 39°53' W 075°11'1 1.5
2017-Jan-16 22:33N 39°53' W 075°09'1 0.5
2017-Jan-16 21:34N 39°53' W 075°08'2 1.9
2017-Jan-16 20:34N 39°53' W 075°11'0 0.0
2017-Jan-16 19:33N 39°53' W 075°11'8 7.8
2017-Jan-16 18:33N 39°51' W 075°20'1111.2
2017-Jan-16 17:33N 39°43' W 075°30'9 8.6
2017-Jan-16 16:33N 39°35' W 075°36'2 1.8
2017-Jan-16 15:33N 39°34' W 075°34'4 4.4
2017-Jan-16 14:33N 39°39' W 075°34'1010.5
2017-Jan-16 13:33N 39°48' W 075°27'1110.6
2017-Jan-16 12:33N 39°52' W 075°14'3 2.9
2017-Jan-16 11:33N 39°53' W 075°11'0 0.0
2017-Jan-16 10:33N 39°53' W 075°11'0 0.0
2017-Jan-16 09:33N 39°53' W 075°11'0 0.0
2017-Jan-16 08:33N 39°53' W 075°11'0 0.0
2017-Jan-16 07:33N 39°53' W 075°11'0 0.0
2017-Jan-16 06:33N 39°53' W 075°11'0 0.0
2017-Jan-16 05:33N 39°53' W 075°11'0 0.0
2017-Jan-16 04:33N 39°53' W 075°11'0 0.0
2017-Jan-16 03:33N 39°53' W 075°11'0 0.0
2017-Jan-16 02:33N 39°53' W 075°11'2 2.2
2017-Jan-16 01:33N 39°52' W 075°13'0 0.0
2017-Jan-16 00:33N 39°52' W 075°13'2 2.3
2017-Jan-15 23:33N 39°53' W 075°11'0 0.0
2017-Jan-15 22:33N 39°53' W 075°11'0 0.0
2017-Jan-15 21:33N 39°53' W 075°11'0 0.0
2017-Jan-15 20:33N 39°53' W 075°11'0 0.0
2017-Jan-15 19:33N 39°53' W 075°11'0 0.0
2017-Jan-15 18:33N 39°53' W 075°11'0 0.0
2017-Jan-15 17:33N 39°53' W 075°11'0 0.0
2017-Jan-15 16:33N 39°53' W 075°11'0 0.0
2017-Jan-15 15:33N 39°53' W 075°11'0 0.0
2017-Jan-15 14:33N 39°53' W 075°11'0 0.0
2017-Jan-15 13:33N 39°53' W 075°11'0 0.0
2017-Jan-15 12:33N 39°53' W 075°11'0 0.0
2017-Jan-15 11:32N 39°53' W 075°11'0 0.0
2017-Jan-15 10:33N 39°53' W 075°11'0 0.0
2017-Jan-15 09:33N 39°53' W 075°11'0 0.0
2017-Jan-15 08:33N 39°53' W 075°11'0 0.0
2017-Jan-15 07:33N 39°53' W 075°11'0 0.0
2017-Jan-15 06:33N 39°53' W 075°11'0 0.0
2017-Jan-15 05:33N 39°53' W 075°11'0 0.0
2017-Jan-15 04:33N 39°53' W 075°11'0 0.0
2017-Jan-15 03:33N 39°53' W 075°11'0 0.0
2017-Jan-15 02:33N 39°53' W 075°11'0 0.0
2017-Jan-15 01:33N 39°53' W 075°11'2 2.3
2017-Jan-15 00:33N 39°52' W 075°13'2 2.3
2017-Jan-14 23:33N 39°53' W 075°11'0 0.0
2017-Jan-14 22:33N 39°53' W 075°11'0 0.0
2017-Jan-14 21:33N 39°53' W 075°11'4 3.9
2017-Jan-14 20:33N 39°51' W 075°15'1110.9
2017-Jan-14 19:33N 39°47' W 075°28'1312.6
2017-Jan-14 18:33N 39°35' W 075°33'2 1.8
2017-Jan-14 17:33N 39°35' W 075°36'1 1.5
2017-Jan-14 16:33N 39°35' W 075°34'8 7.8
2017-Jan-14 15:33N 39°43' W 075°31'10 9.9
2017-Jan-14 14:33N 39°33' W 075°32'1312.8
2017-Jan-14 13:33N 39°21' W 075°26'13 6.1
2017-Jan-14 11:21N 39°10' W 075°16'911.0
2017-Jan-14 10:33N 39°18' W 075°22'1211.9
2017-Jan-14 09:33N 39°27' W 075°33'1111.0
2017-Jan-14 08:33N 39°37' W 075°35'1010.4
2017-Jan-14 07:33N 39°47' W 075°28'9 8.8
2017-Jan-14 06:32N 39°51' W 075°18'8 8.1
2017-Jan-14 05:33N 39°54' W 075°08'5 4.8
2017-Jan-14 04:33N 39°58' W 075°06'0 0.2
2017-Jan-14 03:33N 39°58' W 075°07'6 1.5
2017-Jan-13 23:33N 39°53' W 075°11'0 0.0
2017-Jan-13 22:33N 39°53' W 075°11'0 0.0
2017-Jan-13 21:33N 39°53' W 075°11'0 0.0
2017-Jan-13 20:33N 39°53' W 075°11'0 0.0
2017-Jan-13 19:33N 39°53' W 075°11'0 0.0
2017-Jan-13 18:33N 39°53' W 075°11'0 0.0
2017-Jan-13 17:33N 39°53' W 075°11'0 0.0
2017-Jan-13 16:33N 39°53' W 075°11'0 0.0
2017-Jan-13 15:33N 39°53' W 075°11'0 0.0
2017-Jan-13 14:33N 39°53' W 075°11'  

Dump ship's entire track history